createdAt,value
2023-01-19T00:00:49.853Z,11.41
2023-01-19T00:03:37.004Z,11.43
2023-01-19T00:06:23.133Z,11.49
2023-01-19T00:09:08.945Z,11.30
2023-01-19T00:11:54.753Z,11.38
2023-01-19T00:14:40.628Z,11.45
2023-01-19T00:17:26.330Z,11.57
2023-01-19T00:20:12.383Z,11.40
2023-01-19T00:22:59.100Z,11.69
2023-01-19T00:25:45.317Z,11.71
2023-01-19T00:28:31.164Z,11.70
2023-01-19T00:31:16.972Z,11.68
2023-01-19T00:34:04.211Z,11.78
2023-01-19T00:36:50.448Z,11.73
2023-01-19T00:39:36.237Z,11.73
2023-01-19T00:42:40.233Z,11.72
2023-01-19T00:45:26.875Z,11.78
2023-01-19T00:48:13.539Z,11.75
2023-01-19T00:51:00.134Z,11.83
2023-01-19T00:53:46.555Z,11.63
2023-01-19T00:56:32.488Z,11.85
2023-01-19T00:59:18.599Z,11.89
2023-01-19T01:02:04.712Z,11.89
2023-01-19T01:04:55.000Z,11.63
2023-01-19T01:07:41.804Z,11.70
2023-01-19T01:10:28.962Z,11.56
2023-01-19T01:13:19.893Z,11.71
2023-01-19T01:16:10.015Z,11.61
2023-01-19T01:18:55.956Z,11.42
2023-01-19T01:21:42.124Z,11.54
2023-01-19T01:24:28.209Z,11.39
2023-01-19T01:27:14.043Z,11.57
2023-01-19T01:29:59.989Z,11.43
2023-01-19T01:32:45.871Z,11.61
2023-01-19T01:35:33.478Z,11.42
2023-01-19T01:38:19.647Z,11.41
2023-01-19T01:41:05.431Z,11.53
2023-01-19T01:43:54.939Z,11.55
2023-01-19T01:46:40.729Z,11.48
2023-01-19T01:49:26.581Z,11.37
2023-01-19T01:52:14.062Z,11.39
2023-01-19T01:55:01.349Z,11.45
2023-01-19T01:57:51.290Z,11.50
2023-01-19T02:00:56.970Z,11.48
2023-01-19T02:03:43.006Z,11.48
2023-01-19T02:06:29.027Z,11.46
2023-01-19T02:09:33.416Z,11.62
2023-01-19T02:12:37.747Z,11.57
2023-01-19T02:15:23.758Z,11.53
2023-01-19T02:18:10.572Z,11.47
2023-01-19T02:21:11.754Z,11.69
2023-01-19T02:23:59.266Z,11.83
2023-01-19T02:26:47.063Z,11.85
2023-01-19T02:29:33.437Z,11.95
2023-01-19T02:32:19.248Z,11.97
2023-01-19T02:35:05.943Z,11.96
2023-01-19T02:37:53.112Z,11.87
2023-01-19T02:40:41.910Z,11.97
2023-01-19T02:43:29.026Z,12.08
2023-01-19T02:46:18.432Z,12.13
2023-01-19T02:49:04.607Z,11.92
2023-01-19T02:51:50.470Z,11.95
2023-01-19T02:54:48.504Z,11.95
2023-01-19T02:57:49.458Z,12.05
2023-01-19T03:00:47.348Z,12.04
2023-01-19T03:03:56.434Z,11.77
2023-01-19T03:07:13.645Z,11.76
2023-01-19T03:10:05.459Z,12.01
2023-01-19T03:12:59.236Z,12.06
2023-01-19T03:15:58.495Z,12.09
2023-01-19T03:18:47.455Z,12.05
2023-01-19T03:21:34.499Z,12.08
2023-01-19T03:24:21.895Z,12.29
2023-01-19T03:27:32.407Z,12.22
2023-01-19T03:30:24.761Z,12.29
2023-01-19T03:33:16.652Z,12.28
2023-01-19T03:36:06.138Z,12.36
2023-01-19T03:38:53.150Z,12.39
2023-01-19T03:41:39.887Z,12.42
2023-01-19T03:44:27.819Z,12.39
2023-01-19T03:47:15.067Z,12.45
2023-01-19T03:50:02.670Z,12.43
2023-01-19T03:53:03.507Z,12.46
2023-01-19T03:55:51.449Z,12.52
2023-01-19T03:58:37.474Z,12.57
2023-01-19T04:01:23.934Z,12.56
2023-01-19T04:04:09.920Z,12.51
2023-01-19T04:06:55.711Z,12.50
2023-01-19T04:09:41.436Z,12.54
2023-01-19T04:12:27.281Z,12.68
2023-01-19T04:15:13.086Z,12.70
2023-01-19T04:18:00.500Z,12.67
2023-01-19T04:20:46.337Z,12.71
2023-01-19T04:23:32.392Z,12.70
2023-01-19T04:26:18.642Z,12.72
2023-01-19T04:29:04.520Z,12.72
2023-01-19T04:31:50.203Z,12.56
2023-01-19T04:34:36.204Z,12.71
2023-01-19T04:37:22.109Z,12.67
2023-01-19T04:40:09.194Z,12.72
2023-01-19T04:42:55.041Z,12.46
2023-01-19T04:45:40.666Z,12.71
2023-01-19T04:48:26.624Z,12.66
2023-01-19T04:51:12.506Z,12.59
2023-01-19T04:53:58.436Z,12.55
2023-01-19T04:56:44.272Z,12.49
2023-01-19T04:59:30.293Z,12.48
2023-01-19T05:02:16.327Z,12.53
2023-01-19T05:05:03.067Z,12.45
2023-01-19T05:07:49.102Z,12.43
2023-01-19T05:10:36.644Z,12.30
2023-01-19T05:13:22.365Z,12.30
2023-01-19T05:16:08.512Z,12.42
2023-01-19T05:18:54.706Z,11.79
2023-01-19T05:21:40.584Z,11.84
2023-01-19T05:24:26.504Z,11.84
2023-01-19T05:27:12.732Z,12.21
2023-01-19T05:29:58.721Z,12.26
2023-01-19T05:32:44.530Z,12.28
2023-01-19T05:35:35.973Z,12.38
2023-01-19T05:38:34.365Z,12.39
2023-01-19T05:41:20.944Z,12.44
2023-01-19T05:44:06.882Z,12.46
2023-01-19T05:46:52.725Z,12.45
2023-01-19T05:49:38.602Z,12.40
2023-01-19T05:52:27.166Z,12.34
2023-01-19T05:55:15.534Z,12.43
2023-01-19T05:58:01.483Z,12.36
2023-01-19T06:00:47.538Z,12.38
2023-01-19T06:03:34.559Z,12.50
2023-01-19T06:06:20.431Z,12.51
2023-01-19T06:09:07.899Z,12.33
2023-01-19T06:11:55.719Z,12.42
2023-01-19T06:14:41.456Z,12.47
2023-01-19T06:17:27.277Z,12.45
2023-01-19T06:20:14.271Z,12.49
2023-01-19T06:23:00.297Z,12.37
2023-01-19T06:25:46.923Z,12.41
2023-01-19T06:28:32.714Z,12.52
2023-01-19T06:31:19.151Z,12.34
2023-01-19T06:34:05.124Z,12.48
2023-01-19T06:36:51.263Z,12.42
2023-01-19T06:39:40.995Z,12.50
2023-01-19T06:42:27.063Z,12.50
2023-01-19T06:45:12.705Z,12.42
2023-01-19T06:47:58.656Z,12.42
2023-01-19T06:50:48.348Z,12.43
2023-01-19T06:53:34.413Z,12.33
2023-01-19T06:56:20.290Z,12.45
2023-01-19T06:59:06.880Z,12.29
2023-01-19T07:01:52.819Z,12.38
2023-01-19T07:04:38.920Z,12.36
2023-01-19T07:07:25.280Z,12.11
2023-01-19T07:10:12.191Z,12.23
2023-01-19T07:12:58.753Z,12.21
2023-01-19T07:15:45.209Z,12.10
2023-01-19T07:18:31.870Z,12.15
2023-01-19T07:21:18.566Z,12.17
2023-01-19T07:24:04.510Z,12.11
2023-01-19T07:26:50.070Z,12.06
2023-01-19T07:29:35.994Z,11.96
2023-01-19T07:32:21.913Z,11.97
2023-01-19T07:35:08.528Z,11.97
2023-01-19T07:37:54.553Z,11.87
2023-01-19T07:40:40.424Z,11.97
2023-01-19T07:43:26.392Z,11.90
2023-01-19T07:46:12.471Z,11.92
2023-01-19T07:48:58.169Z,11.85
2023-01-19T07:51:44.010Z,11.92
2023-01-19T07:54:29.853Z,11.94
2023-01-19T07:57:15.650Z,11.96
2023-01-19T08:00:01.592Z,11.96
2023-01-19T08:02:51.329Z,11.96
2023-01-19T08:05:37.493Z,11.96
2023-01-19T08:08:23.413Z,11.85
2023-01-19T08:11:09.605Z,11.92
2023-01-19T08:13:55.485Z,11.84
2023-01-19T08:16:41.444Z,11.89
2023-01-19T08:19:27.268Z,11.73
2023-01-19T08:22:12.999Z,11.83
2023-01-19T08:24:58.787Z,11.67
2023-01-19T08:27:45.023Z,11.66
2023-01-19T08:30:31.275Z,11.70
2023-01-19T08:33:17.449Z,11.59
2023-01-19T08:36:03.452Z,11.70
2023-01-19T08:38:49.863Z,11.53
2023-01-19T08:41:35.932Z,11.61
2023-01-19T08:44:22.207Z,11.72
2023-01-19T08:47:09.083Z,11.57
2023-01-19T08:49:54.933Z,11.63
2023-01-19T08:52:40.791Z,11.65
2023-01-19T08:55:27.279Z,11.69
2023-01-19T08:58:13.037Z,11.58
2023-01-19T09:01:00.714Z,11.57
2023-01-19T09:03:48.108Z,11.71
2023-01-19T09:06:34.320Z,11.65
2023-01-19T09:09:20.652Z,11.59
2023-01-19T09:12:06.553Z,11.61
2023-01-19T09:14:52.365Z,11.59
2023-01-19T09:17:38.461Z,11.59
2023-01-19T09:20:24.242Z,11.61
2023-01-19T09:23:14.887Z,11.59
2023-01-19T09:26:03.191Z,11.65
2023-01-19T09:43:02.976Z,11.87
2023-01-19T09:45:57.060Z,11.82
2023-01-19T09:48:53.031Z,11.88
2023-01-19T09:51:41.510Z,11.87
2023-01-19T09:54:36.008Z,11.82
2023-01-19T09:57:23.364Z,11.87
2023-01-19T10:00:17.192Z,11.84
2023-01-19T10:03:14.789Z,11.83
2023-01-19T10:06:06.287Z,11.85
2023-01-19T10:09:25.291Z,11.72
2023-01-19T10:12:19.853Z,11.86
2023-01-19T10:15:17.917Z,11.86
2023-01-19T10:18:13.341Z,11.84
2023-01-19T10:21:29.170Z,11.82
2023-01-19T10:24:22.649Z,11.73
2023-01-19T10:27:21.844Z,11.80
2023-01-19T10:30:10.447Z,11.82
2023-01-19T10:32:56.822Z,11.82
2023-01-19T10:35:42.941Z,11.82
2023-01-19T10:38:30.449Z,11.83
2023-01-19T10:41:24.344Z,11.71
2023-01-19T10:44:11.215Z,11.85
2023-01-19T10:46:58.975Z,11.84
2023-01-19T10:49:45.027Z,11.78
2023-01-19T10:52:31.998Z,11.85
2023-01-19T10:55:39.598Z,11.73
2023-01-19T10:58:31.133Z,11.74
2023-01-19T11:01:24.204Z,11.61
2023-01-19T11:04:20.658Z,11.61
2023-01-19T11:07:26.371Z,11.53
2023-01-19T11:10:15.485Z,11.58
2023-01-19T11:13:07.759Z,11.60
2023-01-19T11:15:57.599Z,11.57
2023-01-19T11:18:43.894Z,11.57
2023-01-19T11:21:30.901Z,11.54
2023-01-19T11:24:17.161Z,11.54
2023-01-19T11:27:03.783Z,11.34
2023-01-19T11:29:59.359Z,11.39
2023-01-19T11:32:46.472Z,11.46
2023-01-19T11:35:40.264Z,11.43
2023-01-19T11:38:27.422Z,11.43
2023-01-19T11:41:27.295Z,11.42
2023-01-19T11:44:27.054Z,11.34
2023-01-19T11:47:17.223Z,11.35
2023-01-19T11:50:26.012Z,11.28
2023-01-19T11:53:24.252Z,11.31
2023-01-19T11:56:11.578Z,11.09
2023-01-19T11:58:57.819Z,11.26
2023-01-19T12:01:52.393Z,11.20
2023-01-19T12:04:39.782Z,10.99
2023-01-19T12:07:30.313Z,11.09
2023-01-19T12:10:25.461Z,11.17
2023-01-19T12:13:31.755Z,10.99
2023-01-19T12:16:22.173Z,11.02
2023-01-19T12:19:15.116Z,11.23
2023-01-19T12:22:01.947Z,11.19
2023-01-19T12:24:55.220Z,11.27
2023-01-19T12:27:42.739Z,11.37
2023-01-19T12:30:29.679Z,11.39
2023-01-19T12:33:25.336Z,11.34
2023-01-19T12:36:17.507Z,11.36
2023-01-19T12:39:04.744Z,11.36
2023-01-19T12:42:15.187Z,11.33
2023-01-19T12:45:09.171Z,11.35
2023-01-19T12:47:55.390Z,11.45
2023-01-19T12:50:45.972Z,11.45
2023-01-19T12:53:31.835Z,11.44
2023-01-19T12:56:17.974Z,11.48
2023-01-19T12:59:04.654Z,11.39
2023-01-19T13:02:18.396Z,11.41
2023-01-19T13:05:07.340Z,11.47
2023-01-19T13:08:02.648Z,11.45
2023-01-19T13:11:15.903Z,11.41
2023-01-19T13:14:01.651Z,11.53
2023-01-19T13:16:59.090Z,11.43
2023-01-19T13:19:49.530Z,11.56
2023-01-19T13:22:50.227Z,11.50
2023-01-19T13:25:36.474Z,11.56
2023-01-19T13:28:31.232Z,11.54
2023-01-19T13:31:17.541Z,11.59
2023-01-19T13:34:04.312Z,11.51
2023-01-19T13:36:52.778Z,11.51
2023-01-19T13:39:42.366Z,11.61
2023-01-19T13:42:36.437Z,11.63
2023-01-19T13:45:33.913Z,11.47
2023-01-19T13:48:22.507Z,11.59
2023-01-19T13:51:17.866Z,11.61
2023-01-19T13:54:05.724Z,11.64
2023-01-19T13:56:51.887Z,11.67
2023-01-19T13:59:37.727Z,11.70
2023-01-19T14:02:23.612Z,11.71
2023-01-19T14:05:14.517Z,11.77
2023-01-19T14:08:03.579Z,11.79
2023-01-19T14:10:52.345Z,11.77
2023-01-19T14:13:41.692Z,11.84
2023-01-19T14:16:27.490Z,11.73
2023-01-19T14:19:13.406Z,11.85
2023-01-19T14:22:04.481Z,11.79
2023-01-19T14:24:50.275Z,11.87
2023-01-19T14:27:36.396Z,11.85
2023-01-19T14:30:25.198Z,11.85
2023-01-19T14:33:58.619Z,11.79
2023-01-19T14:36:44.398Z,11.72
2023-01-19T14:39:33.366Z,11.84
2023-01-19T14:42:24.078Z,11.68
2023-01-19T14:45:40.505Z,11.73
2023-01-19T14:48:29.379Z,11.84
2023-01-19T14:51:21.565Z,11.83
2023-01-19T14:54:15.877Z,11.80
2023-01-19T14:57:01.954Z,11.84
2023-01-19T14:59:49.740Z,11.87
2023-01-19T15:02:35.828Z,11.90
2023-01-19T15:05:21.547Z,11.86
2023-01-19T15:08:07.869Z,11.82
2023-01-19T15:10:53.636Z,11.80
2023-01-19T15:13:40.609Z,11.86
2023-01-19T15:16:28.020Z,11.92
2023-01-19T15:19:15.277Z,11.80
2023-01-19T15:22:01.025Z,11.86
2023-01-19T15:24:47.083Z,11.87
2023-01-19T15:27:32.993Z,11.88
2023-01-19T15:30:24.205Z,11.83
2023-01-19T15:33:25.478Z,11.74
2023-01-19T15:36:18.163Z,11.78
2023-01-19T15:39:04.628Z,11.82
2023-01-19T15:41:50.823Z,11.84
2023-01-19T15:44:36.857Z,11.83
2023-01-19T15:47:22.563Z,11.81
2023-01-19T15:50:09.200Z,11.82
2023-01-19T15:52:55.401Z,11.75
2023-01-19T15:55:41.215Z,11.72
2023-01-19T15:58:27.558Z,11.80
2023-01-19T16:01:15.849Z,11.81
2023-01-19T16:04:03.632Z,11.69
2023-01-19T16:06:50.189Z,11.68
2023-01-19T16:09:36.124Z,11.69
2023-01-19T16:12:22.038Z,11.75
2023-01-19T16:15:08.469Z,11.74
2023-01-19T16:17:54.620Z,11.68
2023-01-19T16:20:40.469Z,11.68
2023-01-19T16:23:26.481Z,11.68
2023-01-19T16:26:34.790Z,11.66
2023-01-19T16:29:21.225Z,11.56
2023-01-19T16:32:07.052Z,11.68
2023-01-19T16:34:52.960Z,11.62
2023-01-19T16:37:39.641Z,11.68
2023-01-19T16:40:26.363Z,11.66
2023-01-19T16:43:13.034Z,11.66
2023-01-19T16:46:02.870Z,11.63
2023-01-19T16:48:50.313Z,11.67
2023-01-19T16:51:36.653Z,11.65
2023-01-19T16:54:26.034Z,11.65
2023-01-19T16:57:11.971Z,11.60
2023-01-19T16:59:58.077Z,11.64
2023-01-19T17:02:44.231Z,11.61
2023-01-19T17:05:29.921Z,11.44
2023-01-19T17:08:15.716Z,11.56
2023-01-19T17:11:07.735Z,11.53
2023-01-19T17:14:02.102Z,11.51
2023-01-19T17:16:49.156Z,11.46
2023-01-19T17:19:35.457Z,11.52
2023-01-19T17:22:21.904Z,11.51
2023-01-19T17:25:08.448Z,11.50
2023-01-19T17:27:54.305Z,11.47
2023-01-19T17:30:40.404Z,11.46
2023-01-19T17:33:26.722Z,11.44
2023-01-19T17:36:14.338Z,11.44
2023-01-19T17:39:04.454Z,11.45
2023-01-19T17:41:50.617Z,11.43
2023-01-19T17:44:36.538Z,11.41
2023-01-19T17:47:25.504Z,11.43
2023-01-19T17:50:12.087Z,11.42
2023-01-19T17:52:58.439Z,11.36
2023-01-19T17:55:44.481Z,11.40
2023-01-19T17:58:31.633Z,11.42
2023-01-19T18:01:25.888Z,11.41
2023-01-19T18:04:14.810Z,11.38
2023-01-19T18:07:00.596Z,11.35
2023-01-19T18:09:46.421Z,11.34
2023-01-19T18:12:32.480Z,11.23
2023-01-19T18:15:18.588Z,11.34
2023-01-19T18:18:04.674Z,11.14
2023-01-19T18:20:50.901Z,11.12
2023-01-19T18:23:37.247Z,11.20
2023-01-19T18:26:23.163Z,11.09
2023-01-19T18:29:09.156Z,11.08
2023-01-19T18:31:54.941Z,11.03
2023-01-19T18:34:40.852Z,10.94
2023-01-19T18:37:26.662Z,10.98
2023-01-19T18:40:12.910Z,10.99
2023-01-19T18:42:58.875Z,10.98
2023-01-19T18:45:48.203Z,10.94
2023-01-19T18:48:34.620Z,10.95
2023-01-19T18:51:20.873Z,10.74
2023-01-19T18:54:06.980Z,10.87
2023-01-19T18:56:53.046Z,10.88
2023-01-19T18:59:38.947Z,10.77
2023-01-19T19:02:24.781Z,10.74
2023-01-19T19:05:10.945Z,10.63
2023-01-19T19:07:57.122Z,10.65
2023-01-19T19:10:43.706Z,10.68
2023-01-19T19:13:29.617Z,10.65
2023-01-19T19:16:15.925Z,10.61
2023-01-19T19:19:02.461Z,10.60
2023-01-19T19:21:49.029Z,10.58
2023-01-19T19:24:35.590Z,10.49
2023-01-19T19:27:21.431Z,10.56
2023-01-19T19:30:07.842Z,10.55
2023-01-19T19:32:56.049Z,10.47
2023-01-19T19:35:41.865Z,10.50
2023-01-19T19:38:28.714Z,10.52
2023-01-19T19:41:23.565Z,10.48
2023-01-19T19:44:13.016Z,10.50
2023-01-19T19:46:59.272Z,10.47
2023-01-19T19:49:45.314Z,10.46
2023-01-19T19:52:32.121Z,10.36
2023-01-19T19:55:18.117Z,10.48
2023-01-19T19:58:04.020Z,10.41
2023-01-19T20:00:50.158Z,10.40
2023-01-19T20:03:36.395Z,10.36
2023-01-19T20:06:24.912Z,10.40
2023-01-19T20:09:14.865Z,10.37
2023-01-19T20:12:01.262Z,10.37
2023-01-19T20:14:47.535Z,10.35
2023-01-19T20:17:33.795Z,10.39
2023-01-19T20:20:19.761Z,10.35
2023-01-19T20:23:05.740Z,10.38
2023-01-19T20:25:52.072Z,10.45
2023-01-19T20:28:37.986Z,10.38
2023-01-19T20:31:27.515Z,10.46
2023-01-19T20:34:15.400Z,10.46
2023-01-19T20:37:02.632Z,10.44
2023-01-19T20:39:48.469Z,10.46
2023-01-19T20:42:34.518Z,10.47
2023-01-19T20:45:20.856Z,10.39
2023-01-19T20:48:06.925Z,10.48
2023-01-19T20:51:07.122Z,10.45
2023-01-19T20:53:53.259Z,10.54
2023-01-19T20:56:41.249Z,10.45
2023-01-19T20:59:27.973Z,10.45
2023-01-19T21:02:16.187Z,10.54
2023-01-19T21:05:02.053Z,10.48
2023-01-19T21:07:48.764Z,10.41
2023-01-19T21:10:34.966Z,10.44
2023-01-19T21:13:20.955Z,10.42
2023-01-19T21:16:07.856Z,10.50
2023-01-19T21:18:54.965Z,10.48
2023-01-19T21:21:41.245Z,10.51
2023-01-19T21:24:27.452Z,10.44
2023-01-19T21:27:13.362Z,10.48
2023-01-19T21:30:01.190Z,10.38
2023-01-19T21:32:47.325Z,10.49
2023-01-19T21:35:33.476Z,10.48
2023-01-19T21:38:19.912Z,10.48
2023-01-19T21:41:12.898Z,10.40
2023-01-19T21:44:00.793Z,10.46
2023-01-19T21:46:46.749Z,10.36
2023-01-19T21:49:32.649Z,10.42
2023-01-19T21:52:18.568Z,10.45
2023-01-19T21:55:05.107Z,10.34
2023-01-19T21:57:55.135Z,10.43
2023-01-19T22:00:41.846Z,10.41
2023-01-19T22:03:28.827Z,10.46
2023-01-19T22:06:15.279Z,10.40
2023-01-19T22:09:01.649Z,10.44
2023-01-19T22:11:47.945Z,10.46
2023-01-19T22:14:33.876Z,10.43
2023-01-19T22:17:20.126Z,10.42
2023-01-19T22:20:06.937Z,10.44
2023-01-19T22:22:53.079Z,10.33
2023-01-19T22:25:38.996Z,10.36
2023-01-19T22:28:24.801Z,10.42
2023-01-19T22:31:17.897Z,10.42
2023-01-19T22:34:04.104Z,10.41
2023-01-19T22:36:50.455Z,10.31
2023-01-19T22:39:36.438Z,10.41
2023-01-19T22:42:22.462Z,10.33
2023-01-19T22:45:09.179Z,10.35
2023-01-19T22:47:54.952Z,10.28
2023-01-19T22:50:40.753Z,10.32
2023-01-19T22:53:26.861Z,10.23
2023-01-19T22:56:15.418Z,10.33
2023-01-19T22:59:01.594Z,10.13
2023-01-19T23:01:49.540Z,10.32
2023-01-19T23:04:35.409Z,10.27
2023-01-19T23:07:21.361Z,10.24
2023-01-19T23:10:07.975Z,10.24
2023-01-19T23:12:53.712Z,10.34
2023-01-19T23:15:39.620Z,10.33
2023-01-19T23:18:25.323Z,10.34
2023-01-19T23:21:16.753Z,10.27
2023-01-19T23:24:04.111Z,10.35
2023-01-19T23:26:50.489Z,10.22
2023-01-19T23:29:36.339Z,10.34
2023-01-19T23:32:22.197Z,10.34
2023-01-19T23:35:10.951Z,10.33
2023-01-19T23:37:57.440Z,10.35
2023-01-19T23:40:43.472Z,10.35
2023-01-19T23:43:29.408Z,10.34
2023-01-19T23:46:16.504Z,10.18
2023-01-19T23:49:02.859Z,10.33
2023-01-19T23:51:48.978Z,10.25
2023-01-19T23:54:35.253Z,10.36
2023-01-19T23:57:21.147Z,10.24
